createdAt,value
2022-09-28T00:00:54.660Z,7.81
2022-09-28T00:03:34.167Z,7.79
2022-09-28T00:06:16.308Z,7.76
2022-09-28T00:09:16.887Z,7.70
2022-09-28T00:11:58.007Z,7.65
2022-09-28T00:14:37.319Z,7.62
2022-09-28T00:17:20.408Z,7.60
2022-09-28T00:20:04.748Z,7.55
2022-09-28T00:22:43.532Z,7.54
2022-09-28T00:25:24.869Z,7.52
2022-09-28T00:28:05.151Z,7.49
2022-09-28T00:30:45.705Z,7.45
2022-09-28T00:33:25.654Z,7.44
2022-09-28T00:36:05.340Z,7.41
2022-09-28T00:38:45.934Z,7.39
2022-09-28T00:41:29.573Z,7.42
2022-09-28T00:44:50.825Z,7.40
2022-09-28T00:47:38.936Z,7.35
2022-09-28T00:50:24.969Z,7.33
2022-09-28T00:53:07.798Z,7.32
2022-09-28T00:55:51.282Z,7.34
2022-09-28T00:58:33.451Z,7.36
2022-09-28T01:01:14.114Z,7.37
2022-09-28T01:03:54.725Z,7.39
2022-09-28T01:06:39.099Z,7.42
2022-09-28T01:09:19.356Z,7.46
2022-09-28T01:11:59.656Z,7.51
2022-09-28T01:14:39.573Z,7.55
2022-09-28T01:17:26.617Z,7.61
2022-09-28T01:20:48.775Z,7.64
2022-09-28T01:24:10.851Z,7.68
2022-09-28T01:26:58.039Z,7.71
2022-09-28T01:29:47.375Z,7.72
2022-09-28T01:32:36.590Z,7.73
2022-09-28T01:35:20.094Z,7.81
2022-09-28T01:38:03.430Z,7.83
2022-09-28T01:40:47.575Z,7.89
2022-09-28T01:43:30.127Z,7.92
2022-09-28T01:46:13.813Z,7.96
2022-09-28T01:48:56.244Z,7.99
2022-09-28T01:51:41.285Z,8.02
2022-09-28T01:54:24.628Z,8.05
2022-09-28T01:57:07.757Z,8.08
2022-09-28T01:59:54.291Z,8.12
2022-09-28T02:02:39.496Z,8.12
2022-09-28T02:05:22.694Z,8.15
2022-09-28T02:08:04.674Z,8.18
2022-09-28T02:10:47.220Z,8.21
2022-09-28T02:13:50.158Z,8.25
2022-09-28T02:16:35.674Z,8.19
2022-09-28T02:19:17.407Z,8.24
2022-09-28T02:22:00.876Z,8.22
2022-09-28T02:24:43.044Z,8.12
2022-09-28T02:27:37.171Z,8.19
2022-09-28T02:30:17.877Z,8.09
2022-09-28T02:33:00.932Z,8.20
2022-09-28T02:35:42.080Z,8.25
2022-09-28T02:38:22.440Z,8.30
2022-09-28T02:41:06.524Z,8.34
2022-09-28T02:43:54.173Z,8.36
2022-09-28T02:46:38.676Z,8.41
2022-09-28T02:49:38.582Z,8.37
2022-09-28T02:52:33.364Z,8.39
2022-09-28T02:55:34.641Z,8.39
2022-09-28T02:58:30.542Z,8.39
2022-09-28T03:01:16.861Z,8.42
2022-09-28T03:03:59.140Z,8.46
2022-09-28T03:06:42.683Z,8.47
2022-09-28T03:09:29.051Z,8.44
2022-09-28T03:12:10.779Z,8.42
2022-09-28T03:15:13.758Z,8.47
2022-09-28T03:17:54.793Z,8.51
2022-09-28T03:20:35.137Z,8.47
2022-09-28T03:23:24.771Z,8.53
2022-09-28T03:26:08.362Z,8.44
2022-09-28T03:28:48.486Z,8.43
2022-09-28T03:31:53.809Z,8.45
2022-09-28T03:34:35.507Z,8.48
2022-09-28T03:37:15.018Z,8.54
2022-09-28T03:39:56.818Z,8.54
2022-09-28T03:42:38.678Z,8.57
2022-09-28T03:45:19.198Z,8.64
2022-09-28T03:48:02.553Z,8.63
2022-09-28T03:50:42.015Z,8.65
2022-09-28T03:53:23.920Z,8.62
2022-09-28T03:56:17.327Z,8.51
2022-09-28T03:58:56.528Z,8.40
2022-09-28T04:01:36.350Z,8.46
2022-09-28T04:04:16.220Z,8.55
2022-09-28T04:06:55.824Z,8.57
2022-09-28T04:09:35.717Z,8.54
2022-09-28T04:12:15.501Z,8.57
2022-09-28T04:14:57.263Z,8.60
2022-09-28T04:17:40.117Z,8.64
2022-09-28T04:20:24.613Z,8.65
2022-09-28T04:23:13.879Z,8.66
2022-09-28T04:25:54.152Z,8.68
2022-09-28T04:28:51.030Z,8.66
2022-09-28T04:31:32.259Z,8.71
2022-09-28T04:34:29.798Z,8.73
2022-09-28T04:37:11.384Z,8.76
2022-09-28T04:39:54.744Z,8.79
2022-09-28T04:42:34.807Z,8.82
2022-09-28T04:45:16.317Z,8.84
2022-09-28T04:47:58.563Z,8.80
2022-09-28T04:51:07.098Z,8.84
2022-09-28T04:53:47.108Z,8.80
2022-09-28T04:56:26.871Z,8.86
2022-09-28T04:59:06.966Z,8.85
2022-09-28T05:01:49.748Z,8.89
2022-09-28T05:04:58.825Z,8.90
2022-09-28T05:08:02.396Z,8.88
2022-09-28T05:11:00.242Z,8.93
2022-09-28T05:13:42.756Z,8.93
2022-09-28T05:16:22.867Z,8.97
2022-09-28T05:19:23.421Z,9.00
2022-09-28T05:22:07.146Z,9.01
2022-09-28T05:24:54.653Z,9.04
2022-09-28T05:27:34.075Z,9.04
2022-09-28T05:30:22.706Z,9.05
2022-09-28T05:33:32.000Z,9.06
2022-09-28T05:36:30.062Z,9.07
2022-09-28T05:39:09.613Z,9.12
2022-09-28T05:41:49.144Z,9.11
2022-09-28T05:44:28.979Z,9.11
2022-09-28T05:47:10.335Z,9.11
2022-09-28T05:49:50.167Z,9.12
2022-09-28T05:52:29.930Z,9.13
2022-09-28T05:55:10.473Z,9.11
2022-09-28T05:57:53.122Z,9.12
2022-09-28T06:00:33.840Z,9.15
2022-09-28T06:03:15.930Z,9.14
2022-09-28T06:05:55.443Z,9.15
2022-09-28T06:08:36.775Z,9.14
2022-09-28T06:11:44.104Z,9.05
2022-09-28T06:14:33.788Z,9.06
2022-09-28T06:17:13.562Z,9.10
2022-09-28T06:19:58.800Z,9.09
2022-09-28T06:22:44.768Z,9.12
2022-09-28T06:25:28.292Z,9.14
2022-09-28T06:28:11.459Z,9.18
2022-09-28T06:30:51.990Z,9.19
2022-09-28T06:33:31.578Z,9.19
2022-09-28T06:36:23.270Z,9.23
2022-09-28T06:39:05.108Z,9.23
2022-09-28T06:41:48.016Z,9.23
2022-09-28T06:44:32.248Z,9.25
2022-09-28T06:47:39.599Z,9.24
2022-09-28T06:50:39.090Z,9.25
2022-09-28T06:53:25.051Z,9.28
2022-09-28T06:56:41.787Z,9.27
2022-09-28T06:59:21.605Z,9.25
2022-09-28T07:02:07.802Z,9.27
2022-09-28T07:05:14.950Z,9.33
2022-09-28T07:08:15.796Z,9.34
2022-09-28T07:11:21.172Z,9.37
2022-09-28T07:14:39.623Z,9.45
2022-09-28T07:17:21.930Z,9.51
2022-09-28T07:20:14.215Z,9.55
2022-09-28T07:22:57.573Z,9.39
2022-09-28T07:25:45.316Z,9.44
2022-09-28T07:28:48.179Z,9.52
2022-09-28T07:31:55.478Z,9.51
2022-09-28T07:34:58.141Z,9.50
2022-09-28T07:38:03.283Z,9.58
2022-09-28T07:41:03.056Z,9.59
2022-09-28T07:43:44.596Z,9.60
2022-09-28T07:46:24.009Z,9.64
2022-09-28T07:49:12.656Z,9.64
2022-09-28T07:52:14.339Z,9.60
2022-09-28T07:55:19.456Z,9.66
2022-09-28T07:58:40.385Z,9.70
2022-09-28T08:01:40.286Z,9.75
2022-09-28T08:04:21.582Z,9.81
2022-09-28T08:07:02.759Z,9.84
2022-09-28T08:09:42.425Z,9.89
2022-09-28T08:12:46.143Z,9.94
2022-09-28T08:15:39.047Z,10.04
2022-09-28T08:18:33.137Z,10.09
2022-09-28T08:21:42.699Z,10.16
2022-09-28T08:24:24.595Z,10.21
2022-09-28T08:27:10.276Z,10.22
2022-09-28T08:29:53.151Z,10.26
2022-09-28T08:33:11.072Z,10.27
2022-09-28T08:36:16.528Z,10.32
2022-09-28T08:39:24.536Z,10.35
2022-09-28T08:42:32.568Z,10.36
2022-09-28T08:45:34.935Z,10.34
2022-09-28T08:49:01.067Z,10.38
2022-09-28T08:52:13.439Z,10.40
2022-09-28T08:55:17.618Z,10.43
2022-09-28T08:58:02.818Z,10.46
2022-09-28T09:00:48.493Z,10.52
2022-09-28T09:03:36.372Z,10.55
2022-09-28T09:06:50.979Z,10.58
2022-09-28T09:09:58.788Z,10.61
2022-09-28T09:12:55.298Z,10.63
2022-09-28T09:16:38.540Z,10.59
2022-09-28T09:19:45.312Z,10.60
2022-09-28T09:22:40.691Z,10.63
2022-09-28T09:25:25.479Z,10.65
2022-09-28T09:28:21.207Z,10.63
2022-09-28T09:31:24.066Z,10.69
2022-09-28T09:34:15.634Z,10.72
2022-09-28T09:37:09.805Z,10.72
2022-09-28T09:40:27.865Z,10.76
2022-09-28T09:43:45.445Z,10.74
2022-09-28T09:46:57.233Z,10.74
2022-09-28T09:49:47.184Z,10.73
2022-09-28T09:52:47.640Z,10.77
2022-09-28T09:55:31.018Z,10.77
2022-09-28T09:58:32.525Z,10.85
2022-09-28T10:01:42.439Z,10.88
2022-09-28T10:04:36.264Z,10.89
2022-09-28T10:07:25.026Z,10.93
2022-09-28T10:10:12.951Z,11.00
2022-09-28T10:13:00.659Z,11.06
2022-09-28T10:15:42.204Z,11.05
2022-09-28T10:18:26.856Z,11.08
2022-09-28T10:21:50.181Z,11.11
2022-09-28T10:24:39.930Z,11.14
2022-09-28T10:27:25.473Z,11.18
2022-09-28T10:30:16.053Z,11.22
2022-09-28T10:32:59.328Z,11.26
2022-09-28T10:35:44.262Z,11.32
2022-09-28T10:38:26.717Z,11.36
2022-09-28T10:41:13.395Z,11.40
2022-09-28T10:44:17.383Z,11.55
2022-09-28T10:47:16.873Z,11.62
2022-09-28T10:49:59.048Z,11.69
2022-09-28T10:52:41.627Z,11.76
2022-09-28T10:55:36.937Z,11.93
2022-09-28T10:58:26.016Z,12.04
2022-09-28T11:01:09.252Z,12.12
2022-09-28T11:03:53.433Z,12.19
2022-09-28T11:06:44.933Z,12.25
2022-09-28T11:09:30.581Z,12.26
2022-09-28T11:12:17.676Z,12.45
2022-09-28T11:15:01.666Z,12.59
2022-09-28T11:17:43.677Z,12.69
2022-09-28T11:20:34.500Z,12.77
2022-09-28T11:23:23.932Z,12.88
2022-09-28T11:26:07.846Z,12.89
2022-09-28T11:28:51.626Z,12.92
2022-09-28T11:31:39.703Z,12.94
2022-09-28T11:34:36.483Z,13.04
2022-09-28T11:37:45.254Z,13.11
2022-09-28T11:40:38.023Z,13.16
2022-09-28T11:43:23.180Z,13.22
2022-09-28T11:46:12.030Z,13.27
2022-09-28T11:48:56.548Z,13.30
2022-09-28T11:51:37.638Z,13.37
2022-09-28T11:54:23.641Z,13.40
2022-09-28T11:57:05.689Z,13.42
2022-09-28T11:59:54.135Z,13.45
2022-09-28T12:02:37.950Z,13.51
2022-09-28T12:05:27.017Z,13.53
2022-09-28T12:08:10.846Z,13.55
2022-09-28T12:11:21.526Z,13.51
2022-09-28T12:14:34.707Z,13.55
2022-09-28T12:17:23.204Z,13.56
2022-09-28T12:20:13.134Z,13.58
2022-09-28T12:22:56.868Z,13.57
2022-09-28T12:25:53.085Z,13.55
2022-09-28T12:28:36.431Z,13.63
2022-09-28T12:31:19.098Z,13.60
2022-09-28T12:33:59.504Z,13.53
2022-09-28T12:36:51.593Z,13.69
2022-09-28T12:39:57.670Z,13.78
2022-09-28T12:42:52.834Z,13.85
2022-09-28T12:46:10.451Z,13.92
2022-09-28T12:52:30.149Z,13.87
2022-09-28T12:55:23.223Z,13.93
2022-09-28T12:58:11.975Z,13.98
2022-09-28T13:00:59.706Z,13.87
2022-09-28T13:03:49.588Z,13.85
2022-09-28T13:06:51.711Z,13.87
2022-09-28T13:09:37.909Z,13.89
2022-09-28T13:12:27.257Z,13.87
2022-09-28T13:15:28.223Z,13.86
2022-09-28T13:18:14.638Z,13.92
2022-09-28T13:21:09.288Z,13.94
2022-09-28T13:23:57.733Z,14.05
2022-09-28T13:26:47.299Z,14.03
2022-09-28T13:29:27.636Z,14.06
2022-09-28T13:32:09.483Z,14.03
2022-09-28T13:34:50.943Z,14.11
2022-09-28T13:37:31.454Z,14.06
2022-09-28T13:40:12.262Z,14.06
2022-09-28T13:43:02.462Z,14.01
2022-09-28T13:45:54.617Z,14.00
2022-09-28T13:48:46.208Z,13.97
2022-09-28T13:52:06.849Z,14.02
2022-09-28T13:55:27.018Z,14.14
2022-09-28T13:58:20.537Z,14.15
2022-09-28T14:02:14.951Z,14.20
2022-09-28T14:05:07.899Z,14.27
2022-09-28T14:08:24.867Z,14.32
2022-09-28T14:11:48.310Z,14.23
2022-09-28T14:14:45.886Z,14.23
2022-09-28T14:18:09.376Z,14.25
2022-09-28T14:20:59.281Z,14.13
2022-09-28T14:24:15.409Z,14.20
2022-09-28T14:27:51.377Z,14.17
2022-09-28T14:30:46.651Z,14.15
2022-09-28T14:33:56.927Z,14.11
2022-09-28T14:37:12.391Z,14.09
2022-09-28T14:40:28.281Z,14.03
2022-09-28T14:44:00.495Z,13.92
2022-09-28T14:47:37.484Z,13.89
2022-09-28T14:50:30.584Z,13.83
2022-09-28T14:53:13.844Z,13.80
2022-09-28T14:55:57.821Z,13.77
2022-09-28T14:58:42.181Z,13.61
2022-09-28T15:01:24.580Z,13.71
2022-09-28T15:04:05.674Z,13.61
2022-09-28T15:06:46.934Z,13.64
2022-09-28T15:09:29.472Z,13.60
2022-09-28T15:12:19.782Z,13.58
2022-09-28T15:15:02.398Z,13.59
2022-09-28T15:17:42.798Z,13.51
2022-09-28T15:20:25.543Z,13.52
2022-09-28T15:23:04.778Z,13.55
2022-09-28T15:25:52.835Z,13.45
2022-09-28T15:28:45.908Z,13.42
2022-09-28T15:31:28.343Z,13.26
2022-09-28T15:34:53.795Z,12.96
2022-09-28T15:37:39.710Z,13.02
2022-09-28T15:40:31.636Z,12.73
2022-09-28T15:43:26.689Z,12.89
2022-09-28T15:46:16.113Z,12.78
2022-09-28T15:48:59.499Z,12.74
2022-09-28T15:51:52.102Z,12.77
2022-09-28T15:54:36.389Z,12.78
2022-09-28T15:57:33.309Z,12.81
2022-09-28T16:00:26.944Z,12.59
2022-09-28T16:03:22.493Z,12.56
2022-09-28T16:06:10.571Z,12.57
2022-09-28T16:08:50.283Z,12.51
2022-09-28T16:11:31.825Z,12.29
2022-09-28T16:14:18.353Z,12.29
2022-09-28T16:16:58.171Z,12.22
2022-09-28T16:19:39.246Z,12.19
2022-09-28T16:22:26.760Z,12.10
2022-09-28T16:25:17.792Z,12.04
2022-09-28T16:27:57.726Z,12.01
2022-09-28T16:30:38.305Z,11.98
2022-09-28T16:33:30.104Z,11.92
2022-09-28T16:36:13.320Z,11.91
2022-09-28T16:38:54.242Z,11.84
2022-09-28T16:41:34.353Z,11.76
2022-09-28T16:44:19.519Z,11.68
2022-09-28T16:47:00.562Z,11.65
2022-09-28T16:49:40.174Z,11.53
2022-09-28T16:52:39.085Z,11.45
2022-09-28T16:58:18.534Z,11.32
2022-09-28T17:01:00.184Z,11.22
2022-09-28T17:03:46.530Z,11.14
2022-09-28T17:06:27.733Z,11.06
2022-09-28T17:09:12.183Z,10.99
2022-09-28T17:11:55.957Z,10.92
2022-09-28T17:14:37.097Z,10.85
2022-09-28T17:17:19.595Z,10.75
2022-09-28T17:19:58.884Z,10.59
2022-09-28T17:22:39.694Z,10.51
2022-09-28T17:25:20.620Z,10.48
2022-09-28T17:27:59.236Z,10.40
2022-09-28T17:30:39.767Z,10.34
2022-09-28T17:33:19.604Z,10.26
2022-09-28T17:36:01.236Z,10.12
2022-09-28T17:38:42.436Z,10.08
2022-09-28T17:41:34.154Z,10.00
2022-09-28T17:44:34.165Z,9.96
2022-09-28T17:47:18.115Z,9.96
2022-09-28T17:49:58.624Z,9.92
2022-09-28T17:52:38.321Z,9.87
2022-09-28T17:55:19.859Z,9.83
2022-09-28T17:58:00.935Z,9.77
2022-09-28T18:00:41.071Z,9.74
2022-09-28T18:03:25.487Z,9.69
2022-09-28T18:06:10.372Z,9.67
2022-09-28T18:08:50.622Z,9.62
2022-09-28T18:11:30.221Z,9.58
2022-09-28T18:14:11.346Z,9.55
2022-09-28T18:16:51.215Z,9.53
2022-09-28T18:19:33.188Z,9.50
2022-09-28T18:22:14.056Z,9.39
2022-09-28T18:24:52.523Z,9.42
2022-09-28T18:27:31.499Z,9.38
2022-09-28T18:30:33.190Z,9.33
2022-09-28T18:33:16.967Z,9.33
2022-09-28T18:35:59.035Z,9.34
2022-09-28T18:38:39.020Z,9.33
2022-09-28T18:41:18.549Z,9.36
2022-09-28T18:44:01.057Z,9.33
2022-09-28T18:46:40.879Z,9.33
2022-09-28T18:49:21.035Z,9.36
2022-09-28T18:52:02.171Z,9.32
2022-09-28T18:54:42.470Z,9.29
2022-09-28T18:57:22.540Z,9.29
2022-09-28T19:00:02.500Z,9.31
2022-09-28T19:02:41.989Z,9.33
2022-09-28T19:05:21.326Z,9.30
2022-09-28T19:07:59.795Z,9.31
2022-09-28T19:10:44.520Z,9.31
2022-09-28T19:13:24.017Z,9.25
2022-09-28T19:16:09.707Z,9.27
2022-09-28T19:18:52.271Z,9.23
2022-09-28T19:21:33.191Z,9.21
2022-09-28T19:24:15.720Z,9.15
2022-09-28T19:26:54.463Z,9.13
2022-09-28T19:29:34.040Z,9.07
2022-09-28T19:32:15.976Z,9.01
2022-09-28T19:34:59.303Z,8.98
2022-09-28T19:37:39.751Z,8.96
2022-09-28T19:40:19.391Z,8.94
2022-09-28T19:42:59.770Z,8.92
2022-09-28T19:45:39.661Z,8.92
2022-09-28T19:48:17.759Z,8.91
2022-09-28T19:50:59.744Z,8.91
2022-09-28T19:53:41.010Z,8.89
2022-09-28T19:56:24.142Z,8.91
2022-09-28T19:59:05.221Z,8.90
2022-09-28T20:01:46.889Z,8.91
2022-09-28T20:04:27.463Z,8.90
2022-09-28T20:07:09.324Z,8.88
2022-09-28T20:09:47.378Z,8.89
2022-09-28T20:12:28.856Z,8.87
2022-09-28T20:15:11.337Z,8.88
2022-09-28T20:17:51.287Z,8.89
2022-09-28T20:20:31.103Z,8.88
2022-09-28T20:23:10.910Z,8.89
2022-09-28T20:25:54.334Z,8.87
2022-09-28T20:28:35.938Z,8.86
2022-09-28T20:31:18.732Z,8.85
2022-09-28T20:34:42.305Z,8.80
2022-09-28T20:37:25.240Z,8.81
2022-09-28T20:40:03.822Z,8.79
2022-09-28T20:42:45.742Z,8.78
2022-09-28T20:45:25.941Z,8.77
2022-09-28T20:48:07.143Z,8.76
2022-09-28T20:50:47.107Z,8.71
2022-09-28T20:53:27.721Z,8.68
2022-09-28T20:56:08.540Z,8.66
2022-09-28T20:58:50.210Z,8.65
2022-09-28T21:01:31.914Z,8.64
2022-09-28T21:04:13.311Z,8.64
2022-09-28T21:06:55.959Z,8.63
2022-09-28T21:09:34.214Z,8.62
2022-09-28T21:12:15.341Z,8.60
2022-09-28T21:14:55.065Z,8.60
2022-09-28T21:17:34.237Z,8.58
2022-09-28T21:20:13.395Z,8.56
2022-09-28T21:22:51.532Z,8.53
2022-09-28T21:25:29.755Z,8.52
2022-09-28T21:28:08.129Z,8.51
2022-09-28T21:30:59.429Z,8.50
2022-09-28T21:33:39.296Z,8.51
2022-09-28T21:36:40.457Z,8.48
2022-09-28T21:39:21.133Z,8.48
2022-09-28T21:42:00.838Z,8.49
2022-09-28T21:44:39.362Z,8.51
2022-09-28T21:47:20.842Z,8.46
2022-09-28T21:49:59.059Z,8.47
2022-09-28T21:52:38.484Z,8.50
2022-09-28T21:55:18.332Z,8.50
2022-09-28T21:57:58.696Z,8.52
2022-09-28T22:00:39.513Z,8.53
2022-09-28T22:03:18.082Z,8.52
2022-09-28T22:06:19.746Z,8.53
2022-09-28T22:08:59.008Z,8.52
2022-09-28T22:11:39.487Z,8.53
2022-09-28T22:14:21.312Z,8.47
2022-09-28T22:17:00.724Z,8.46
2022-09-28T22:19:41.606Z,8.48
2022-09-28T22:22:24.362Z,8.48
2022-09-28T22:25:07.862Z,8.55
2022-09-28T22:28:07.288Z,8.69
2022-09-28T22:30:46.338Z,8.72
2022-09-28T22:33:27.102Z,8.71
2022-09-28T22:36:07.968Z,8.69
2022-09-28T22:38:47.052Z,8.66
2022-09-28T22:41:28.292Z,8.68
2022-09-28T22:44:07.901Z,8.65
2022-09-28T22:46:49.442Z,8.63
2022-09-28T22:49:32.464Z,8.60
2022-09-28T22:52:10.564Z,8.44
2022-09-28T22:54:51.090Z,8.36
2022-09-28T22:57:31.687Z,8.33
2022-09-28T23:00:11.241Z,8.31
2022-09-28T23:02:49.924Z,8.27
2022-09-28T23:05:29.292Z,8.16
2022-09-28T23:08:11.053Z,8.13
2022-09-28T23:10:49.435Z,8.08
2022-09-28T23:13:31.098Z,7.98
2022-09-28T23:16:14.840Z,7.95
2022-09-28T23:18:54.178Z,7.84
2022-09-28T23:21:34.523Z,7.77
2022-09-28T23:24:14.280Z,7.73
2022-09-28T23:26:54.210Z,7.70
2022-09-28T23:29:35.317Z,7.67
2022-09-28T23:32:17.566Z,7.62
2022-09-28T23:34:57.043Z,7.57
2022-09-28T23:37:59.324Z,7.57
2022-09-28T23:40:38.796Z,7.53
2022-09-28T23:43:18.665Z,7.48
2022-09-28T23:45:58.420Z,7.43
2022-09-28T23:48:39.090Z,7.38
2022-09-28T23:51:19.786Z,7.34
2022-09-28T23:53:58.368Z,7.28
2022-09-28T23:56:37.741Z,7.23
2022-09-28T23:59:17.454Z,7.18
